Time;durP1;ratioP1;P1;durP2;ratioP2;P2;SDS_P1;SDS_P2;PMS_P1;PMS_P2;Temp;Humidity;BMP_temperature;BMP_pressure;BME280_temperature;BME280_humidity;BME280_pressure;Samples;Min_cycle;Max_cycle;Signal;HPM_P1;HPM_P2
2023/09/11 00:00:42;;;;;;;;;;;19.70;99.90;;;;;;4942058;29;20006;-91
2023/09/11 00:03:08;;;;;;;;;;;19.80;99.90;;;;;;4938544;29;19942;-92
2023/09/11 00:05:33;;;;;;;;;;;19.70;99.90;;;;;;4923786;28;19981;-92
2023/09/11 00:07:59;;;;;;;;;;;19.70;99.90;;;;;;4934139;28;19934;-92
2023/09/11 00:10:24;;;;;;;;;;;19.70;99.90;;;;;;4940056;28;19969;-91
2023/09/11 00:12:50;;;;;;;;;;;19.70;99.90;;;;;;4938500;29;19981;-92
2023/09/11 00:15:15;;;;;;;;;;;19.60;99.90;;;;;;4940931;29;20433;-92
2023/09/11 00:17:41;;;;;;;;;;;19.60;99.90;;;;;;4939913;29;19937;-92
2023/09/11 00:20:10;;;;;;;;;;;19.60;99.90;;;;;;4940763;29;19926;-93
2023/09/11 00:22:39;;;;;;;;;;;19.60;99.90;;;;;;4940362;29;19927;-92
2023/09/11 00:25:06;;;;;;;;;;;19.50;99.90;;;;;;4923134;29;19927;-92
2023/09/11 00:27:31;;;;;;;;;;;19.50;99.90;;;;;;4939291;29;20305;-92
2023/09/11 00:29:57;;;;;;;;;;;19.50;99.90;;;;;;4940871;28;19934;-92
2023/09/11 00:32:23;;;;;;;;;;;19.40;99.90;;;;;;4939507;29;19926;-92
2023/09/11 00:34:49;;;;;;;;;;;19.40;99.90;;;;;;4939980;29;19954;-92
2023/09/11 00:37:14;;;;;;;;;;;19.40;99.90;;;;;;4939829;29;19938;-92
2023/09/11 00:39:40;;;;;;;;;;;19.40;99.90;;;;;;4940375;29;19927;-90
2023/09/11 00:42:05;;;;;;;;;;;19.40;99.90;;;;;;4938533;28;19938;-89
2023/09/11 00:44:31;;;;;;;;;;;19.40;99.90;;;;;;4939484;28;20508;-89
2023/09/11 00:46:57;;;;;;;;;;;19.40;99.90;;;;;;4938019;29;20054;-90
2023/09/11 00:49:23;;;;;;;;;;;19.40;99.90;;;;;;4967833;28;19988;-89
2023/09/11 00:51:50;;;;;;;;;;;19.40;99.90;;;;;;4937951;29;19935;-88
2023/09/11 00:54:20;;;;;;;;;;;19.30;99.90;;;;;;4937881;28;19974;-89
2023/09/11 00:56:46;;;;;;;;;;;19.30;99.90;;;;;;4939921;29;19934;-88
2023/09/11 00:59:12;;;;;;;;;;;19.30;99.90;;;;;;4937318;29;19926;-89
2023/09/11 01:01:40;;;;;;;;;;;19.20;99.90;;;;;;4939920;28;20006;-89
2023/09/11 01:04:05;;;;;;;;;;;19.30;99.90;;;;;;4940914;29;19933;-88
2023/09/11 01:06:31;;;;;;;;;;;19.30;99.90;;;;;;4938814;29;19994;-89
2023/09/11 01:08:57;;;;;;;;;;;19.20;99.90;;;;;;4938154;29;19930;-89
2023/09/11 01:11:22;;;;;;;;;;;19.20;99.90;;;;;;4939296;28;19997;-89
2023/09/11 01:13:48;;;;;;;;;;;19.20;99.90;;;;;;4938949;28;19931;-88
2023/09/11 01:16:27;;;;;;;;;;;19.20;99.90;;;;;;4937702;29;19933;-90
2023/09/11 01:18:58;;;;;;;;;;;19.20;99.90;;;;;;4939290;28;19927;-90
2023/09/11 01:21:24;;;;;;;;;;;19.20;99.90;;;;;;4939780;29;20309;-88
2023/09/11 01:24:08;;;;;;;;;;;19.10;99.90;;;;;;4941205;29;20457;-89
2023/09/11 01:50:32;;;;;;;;;;;18.90;99.90;;;;;;4934513;29;19961;-89
2023/09/11 01:52:58;;;;;;;;;;;18.90;99.90;;;;;;4937445;28;19933;-89
2023/09/11 01:55:23;;;;;;;;;;;18.80;99.90;;;;;;4935555;28;19978;-83
2023/09/11 01:57:49;;;;;;;;;;;18.80;99.90;;;;;;4916395;23;19927;-82
2023/09/11 02:00:15;;;;;;;;;;;18.80;99.90;;;;;;4914917;29;19927;-82
2023/09/11 02:02:40;;;;;;;;;;;18.80;99.90;;;;;;4932372;28;20404;-82
2023/09/11 02:05:06;;;;;;;;;;;18.80;99.90;;;;;;4930865;29;19927;-85
2023/09/11 02:07:32;;;;;;;;;;;18.80;99.90;;;;;;4932472;29;19927;-83
2023/09/11 02:09:57;;;;;;;;;;;18.70;99.90;;;;;;4932408;28;19934;-82
2023/09/11 02:12:23;;;;;;;;;;;18.70;99.90;;;;;;4932203;28;19931;-82
2023/09/11 02:14:48;;;;;;;;;;;18.80;99.90;;;;;;4930464;29;19980;-83
2023/09/11 02:17:14;;;;;;;;;;;18.80;99.90;;;;;;4932281;29;20285;-82
2023/09/11 02:19:39;;;;;;;;;;;18.70;99.90;;;;;;4932041;29;19927;-81
2023/09/11 02:22:05;;;;;;;;;;;18.80;99.90;;;;;;4932206;28;19977;-82
2023/09/11 02:24:31;;;;;;;;;;;18.80;99.90;;;;;;4929619;29;19927;-83
2023/09/11 02:26:57;;;;;;;;;;;18.80;99.90;;;;;;4923534;29;19938;-83
2023/09/11 02:29:22;;;;;;;;;;;18.80;99.90;;;;;;4908732;28;19927;-82
2023/09/11 02:31:48;;;;;;;;;;;18.80;99.90;;;;;;4930273;29;19950;-82
2023/09/11 02:34:13;;;;;;;;;;;18.90;99.90;;;;;;4932324;29;19937;-82
2023/09/11 02:36:39;;;;;;;;;;;18.90;99.90;;;;;;4913747;29;20305;-82
2023/09/11 02:39:05;;;;;;;;;;;18.90;99.90;;;;;;4937997;29;19982;-82
2023/09/11 02:41:30;;;;;;;;;;;18.90;99.90;;;;;;4934854;29;19942;-82
2023/09/11 02:43:56;;;;;;;;;;;18.90;99.90;;;;;;4935325;29;19934;-84
2023/09/11 02:46:22;;;;;;;;;;;19.00;99.90;;;;;;4932975;29;19927;-83
2023/09/11 02:48:47;;;;;;;;;;;19.00;99.90;;;;;;4934432;29;19927;-81
2023/09/11 02:51:13;;;;;;;;;;;19.00;99.90;;;;;;4934460;29;19950;-83
2023/09/11 02:53:39;;;;;;;;;;;19.00;99.90;;;;;;4918626;29;19974;-82
2023/09/11 02:56:05;;;;;;;;;;;19.00;99.90;;;;;;4933710;29;19962;-82
2023/09/11 02:58:31;;;;;;;;;;;19.00;99.90;;;;;;4934404;29;20418;-82
2023/09/11 03:01:00;;;;;;;;;;;19.00;99.90;;;;;;4933483;29;20018;-85
2023/09/11 03:03:26;;;;;;;;;;;19.00;99.90;;;;;;4934363;28;19933;-82
2023/09/11 03:05:55;;;;;;;;;;;19.00;99.90;;;;;;4949837;28;20010;-82
2023/09/11 03:08:21;;;;;;;;;;;19.00;99.90;;;;;;4947128;28;19970;-82
2023/09/11 03:10:47;;;;;;;;;;;19.00;99.90;;;;;;4949877;28;19974;-82
2023/09/11 03:13:12;;;;;;;;;;;19.00;99.90;;;;;;4934151;28;19926;-82
2023/09/11 03:15:38;;;;;;;;;;;19.00;99.90;;;;;;4934083;29;19927;-82
2023/09/11 03:18:03;;;;;;;;;;;19.00;99.90;;;;;;4933090;28;20010;-82
2023/09/11 03:20:29;;;;;;;;;;;18.90;99.90;;;;;;4933577;29;20420;-81
2023/09/11 03:22:54;;;;;;;;;;;18.90;99.90;;;;;;4934913;29;19933;-82
2023/09/11 03:25:20;;;;;;;;;;;18.90;99.90;;;;;;4932789;29;19934;-84
2023/09/11 03:27:45;;;;;;;;;;;19.00;99.90;;;;;;4917107;29;20080;-82
2023/09/11 03:30:11;;;;;;;;;;;18.90;99.90;;;;;;4934946;29;19927;-82
2023/09/11 03:32:37;;;;;;;;;;;19.00;99.90;;;;;;4933579;29;19931;-83
2023/09/11 03:35:02;;;;;;;;;;;18.90;99.90;;;;;;4934992;29;19935;-83
2023/09/11 03:37:28;;;;;;;;;;;18.90;99.90;;;;;;4933357;29;19927;-82
2023/09/11 03:39:55;;;;;;;;;;;18.90;99.90;;;;;;4913814;29;19927;-82
2023/09/11 03:42:21;;;;;;;;;;;18.90;99.90;;;;;;4928913;29;20006;-82
2023/09/11 03:44:46;;;;;;;;;;;18.90;99.90;;;;;;4934509;29;20033;-84
2023/09/11 03:47:12;;;;;;;;;;;18.90;99.90;;;;;;4916797;29;19926;-82
2023/09/11 03:49:38;;;;;;;;;;;18.90;99.90;;;;;;4933091;29;19977;-82
2023/09/11 03:52:03;;;;;;;;;;;18.90;99.90;;;;;;4933800;29;19942;-82
2023/09/11 03:54:29;;;;;;;;;;;18.90;99.90;;;;;;4949102;28;19928;-83
2023/09/11 03:56:54;;;;;;;;;;;18.90;99.90;;;;;;4932449;29;20018;-82
2023/09/11 03:59:20;;;;;;;;;;;18.90;99.90;;;;;;4933597;29;19950;-82
2023/09/11 04:01:45;;;;;;;;;;;18.90;99.90;;;;;;4935460;28;19927;-82
2023/09/11 04:04:11;;;;;;;;;;;18.90;99.90;;;;;;4917862;29;19927;-82
2023/09/11 04:06:37;;;;;;;;;;;18.90;99.90;;;;;;4932199;29;19989;-83
2023/09/11 04:09:03;;;;;;;;;;;18.90;99.90;;;;;;4928985;28;19928;-82
2023/09/11 04:11:29;;;;;;;;;;;18.90;99.90;;;;;;4929015;28;19930;-83
2023/09/11 04:13:55;;;;;;;;;;;18.80;99.90;;;;;;4933416;29;19962;-82
2023/09/11 04:16:21;;;;;;;;;;;18.90;99.90;;;;;;4932424;29;19990;-85
2023/09/11 04:18:47;;;;;;;;;;;18.90;99.90;;;;;;4931905;28;19933;-81
2023/09/11 04:21:12;;;;;;;;;;;18.80;99.90;;;;;;4932939;28;19926;-82
2023/09/11 04:23:38;;;;;;;;;;;18.90;99.90;;;;;;4933777;29;19994;-82
2023/09/11 04:26:03;;;;;;;;;;;18.90;99.90;;;;;;4932786;29;20297;-82
2023/09/11 04:28:29;;;;;;;;;;;18.90;99.90;;;;;;4916479;29;19980;-83
2023/09/11 04:30:55;;;;;;;;;;;18.90;99.90;;;;;;4932073;29;19927;-82
2023/09/11 04:33:20;;;;;;;;;;;18.90;99.90;;;;;;4932256;29;19927;-82
2023/09/11 04:35:46;;;;;;;;;;;18.90;99.90;;;;;;4933582;29;19938;-82
2023/09/11 04:38:12;;;;;;;;;;;18.80;99.90;;;;;;4932851;29;19927;-82
2023/09/11 04:40:38;;;;;;;;;;;18.90;99.90;;;;;;4932154;29;19930;-82
2023/09/11 04:43:04;;;;;;;;;;;18.80;99.90;;;;;;4932513;29;19931;-82
2023/09/11 04:45:30;;;;;;;;;;;18.80;99.90;;;;;;4943685;29;19949;-86
2023/09/11 04:47:55;;;;;;;;;;;18.80;99.90;;;;;;4933951;29;19988;-82
2023/09/11 04:50:21;;;;;;;;;;;18.80;99.90;;;;;;4931874;29;19980;-83
2023/09/11 04:52:46;;;;;;;;;;;18.80;99.90;;;;;;4931458;28;19927;-83
2023/09/11 04:55:12;;;;;;;;;;;18.80;99.90;;;;;;4948476;28;19926;-82
2023/09/11 04:57:39;;;;;;;;;;;18.80;99.90;;;;;;4932249;29;19927;-82
2023/09/11 05:00:10;;;;;;;;;;;18.80;99.90;;;;;;4931440;28;20021;-82
2023/09/11 05:02:35;;;;;;;;;;;18.80;99.90;;;;;;4933258;28;19938;-82
2023/09/11 05:05:03;;;;;;;;;;;18.80;99.90;;;;;;4931494;28;19927;-85
2023/09/11 05:07:29;;;;;;;;;;;18.80;99.90;;;;;;4932181;29;19934;-83
2023/09/11 05:09:54;;;;;;;;;;;18.80;99.90;;;;;;4933136;29;19927;-82
2023/09/11 05:12:20;;;;;;;;;;;18.80;99.90;;;;;;4930786;29;19958;-82
2023/09/11 05:14:45;;;;;;;;;;;18.80;99.90;;;;;;4932671;28;19926;-84
2023/09/11 05:17:11;;;;;;;;;;;18.90;99.90;;;;;;4932389;29;20392;-85
2023/09/11 05:19:36;;;;;;;;;;;18.90;99.90;;;;;;4932631;29;20031;-83
2023/09/11 05:22:02;;;;;;;;;;;18.90;99.90;;;;;;4929810;29;19937;-83
2023/09/11 05:24:28;;;;;;;;;;;18.90;99.90;;;;;;4932249;29;20025;-82
2023/09/11 05:26:53;;;;;;;;;;;18.90;99.90;;;;;;4932997;29;19938;-82
2023/09/11 05:29:19;;;;;;;;;;;19.00;99.90;;;;;;4930465;29;19933;-83
2023/09/11 05:31:44;;;;;;;;;;;19.00;99.90;;;;;;4931921;29;19972;-82
2023/09/11 05:34:10;;;;;;;;;;;19.00;99.90;;;;;;4930969;29;20366;-83
2023/09/11 05:36:35;;;;;;;;;;;19.10;99.90;;;;;;4932661;29;19934;-82
2023/09/11 05:39:01;;;;;;;;;;;19.10;99.90;;;;;;4928834;29;19989;-84
2023/09/11 05:41:26;;;;;;;;;;;19.20;99.90;;;;;;4932996;29;19984;-89
2023/09/11 05:43:52;;;;;;;;;;;19.20;99.90;;;;;;4929993;28;19927;-84
2023/09/11 05:46:18;;;;;;;;;;;19.20;99.90;;;;;;4912771;28;20386;-85
2023/09/11 05:48:43;;;;;;;;;;;19.30;99.90;;;;;;4912947;29;19931;-84
2023/09/11 05:51:09;;;;;;;;;;;19.40;99.90;;;;;;4931247;29;19930;-83
2023/09/11 05:53:34;;;;;;;;;;;19.40;99.90;;;;;;4930102;29;19927;-84
2023/09/11 05:56:00;;;;;;;;;;;19.50;99.90;;;;;;4931327;28;19930;-83
2023/09/11 05:58:26;;;;;;;;;;;19.60;99.90;;;;;;4916875;29;19927;-84
2023/09/11 06:00:53;;;;;;;;;;;19.60;99.90;;;;;;4931668;29;20294;-84
2023/09/11 06:03:19;;;;;;;;;;;19.60;99.90;;;;;;4930023;29;20004;-84
2023/09/11 06:05:44;;;;;;;;;;;19.70;99.90;;;;;;4929715;28;19978;-84
2023/09/11 06:08:11;;;;;;;;;;;19.70;99.90;;;;;;4915497;29;20413;-86
2023/09/11 06:10:36;;;;;;;;;;;19.80;99.90;;;;;;4931977;29;20388;-84
2023/09/11 06:13:02;;;;;;;;;;;19.80;99.90;;;;;;4931269;29;19931;-84
2023/09/11 06:15:29;;;;;;;;;;;19.90;99.90;;;;;;4932215;29;19927;-83
2023/09/11 06:17:55;;;;;;;;;;;19.90;99.90;;;;;;4931088;29;19930;-84
2023/09/11 06:20:21;;;;;;;;;;;20.00;99.90;;;;;;4930687;29;20090;-83
2023/09/11 06:22:47;;;;;;;;;;;20.00;99.90;;;;;;4915024;29;19931;-84
2023/09/11 06:25:12;;;;;;;;;;;20.10;99.90;;;;;;4929374;29;19927;-84
2023/09/11 06:27:38;;;;;;;;;;;20.10;99.90;;;;;;4946144;28;19927;-84
2023/09/11 06:30:05;;;;;;;;;;;20.10;99.90;;;;;;4931176;29;19926;-84
2023/09/11 06:32:31;;;;;;;;;;;20.20;99.90;;;;;;4931103;28;20027;-83
2023/09/11 06:34:57;;;;;;;;;;;20.20;99.90;;;;;;4931936;29;19927;-84
2023/09/11 06:37:23;;;;;;;;;;;20.30;99.90;;;;;;4934650;29;19931;-84
2023/09/11 06:39:50;;;;;;;;;;;20.40;99.90;;;;;;4931821;29;19932;-83
2023/09/11 06:42:22;;;;;;;;;;;20.40;99.90;;;;;;4930711;29;19933;-87
2023/09/11 06:44:50;;;;;;;;;;;20.50;99.90;;;;;;4929204;28;19934;-82
2023/09/11 06:47:16;;;;;;;;;;;20.60;99.90;;;;;;4936408;28;19981;-84
2023/09/11 06:49:41;;;;;;;;;;;20.60;99.90;;;;;;4936660;29;19966;-83
2023/09/11 06:52:07;;;;;;;;;;;20.70;99.90;;;;;;4922900;29;20326;-83
2023/09/11 06:54:32;;;;;;;;;;;20.80;99.90;;;;;;4933505;29;19933;-82
2023/09/11 06:56:58;;;;;;;;;;;20.80;99.90;;;;;;4924979;28;19928;-83
2023/09/11 06:59:24;;;;;;;;;;;20.90;99.90;;;;;;4969309;28;20343;-83
2023/09/11 07:01:50;;;;;;;;;;;21.00;99.90;;;;;;4931742;28;19974;-83
2023/09/11 07:04:17;;;;;;;;;;;21.10;99.90;;;;;;4930898;29;20088;-82
2023/09/11 07:06:42;;;;;;;;;;;21.20;99.90;;;;;;4932312;29;19927;-82
2023/09/11 07:09:08;;;;;;;;;;;21.30;99.90;;;;;;4925458;29;20258;-85
2023/09/11 07:11:34;;;;;;;;;;;21.60;99.90;;;;;;4922353;29;19931;-83
2023/09/11 07:13:59;;;;;;;;;;;22.20;99.90;;;;;;4931063;28;20347;-84
2023/09/11 07:16:25;;;;;;;;;;;22.80;99.90;;;;;;4944573;29;19936;-82
2023/09/11 07:18:51;;;;;;;;;;;23.40;99.90;;;;;;4918768;29;19927;-83
2023/09/11 07:21:16;;;;;;;;;;;24.00;99.90;;;;;;4931035;29;19927;-83
2023/09/11 07:23:42;;;;;;;;;;;24.40;99.90;;;;;;4932952;29;19927;-83
2023/09/11 07:26:08;;;;;;;;;;;24.80;99.90;;;;;;4963424;28;19933;-83
2023/09/11 07:28:51;;;;;;;;;;;25.30;99.90;;;;;;4936356;28;19931;-83
2023/09/11 07:31:17;;;;;;;;;;;25.80;99.90;;;;;;5014517;28;19927;-82
2023/09/11 07:33:42;;;;;;;;;;;26.10;99.90;;;;;;4932121;29;19933;-84
2023/09/11 07:36:08;;;;;;;;;;;26.20;99.90;;;;;;4935974;28;19931;-83
2023/09/11 07:38:34;;;;;;;;;;;26.20;99.90;;;;;;4937725;29;19935;-83
2023/09/11 07:40:59;;;;;;;;;;;26.20;99.90;;;;;;4939429;29;19934;-84
2023/09/11 07:43:25;;;;;;;;;;;26.40;99.90;;;;;;4942979;28;19933;-84
2023/09/11 07:45:50;;;;;;;;;;;26.70;99.90;;;;;;4933820;29;19927;-83
2023/09/11 07:48:16;;;;;;;;;;;27.00;99.90;;;;;;4927140;29;20400;-83
2023/09/11 07:50:41;;;;;;;;;;;27.10;99.90;;;;;;4927555;29;19927;-83
2023/09/11 07:53:07;;;;;;;;;;;27.10;99.90;;;;;;4934064;29;19927;-83
2023/09/11 07:55:37;;;;;;;;;;;27.20;99.90;;;;;;4917466;28;19937;-84
2023/09/11 07:58:02;;;;;;;;;;;27.30;99.90;;;;;;4934176;29;19985;-83
2023/09/11 08:00:30;;;;;;;;;;;27.60;99.90;;;;;;4934777;28;20281;-82
2023/09/11 08:02:56;;;;;;;;;;;27.90;99.90;;;;;;4932436;29;20457;-84
2023/09/11 08:05:22;;;;;;;;;;;27.90;99.90;;;;;;4932687;28;20021;-83
2023/09/11 08:07:50;;;;;;;;;;;27.60;99.90;;;;;;4910621;29;19930;-83
2023/09/11 08:10:16;;;;;;;;;;;27.50;99.90;;;;;;4932632;29;19930;-85
2023/09/11 08:12:41;;;;;;;;;;;27.70;99.90;;;;;;4934206;29;19926;-83
2023/09/11 08:15:07;;;;;;;;;;;28.00;99.90;;;;;;4934532;29;19937;-83
2023/09/11 08:17:33;;;;;;;;;;;28.30;99.90;;;;;;4935749;29;20025;-84
2023/09/11 08:19:58;;;;;;;;;;;28.70;99.90;;;;;;4938325;28;20704;-84
2023/09/11 08:22:24;;;;;;;;;;;28.80;99.90;;;;;;4930183;28;19937;-87
2023/09/11 08:24:50;;;;;;;;;;;28.80;99.90;;;;;;4933752;29;19988;-85
2023/09/11 08:27:15;;;;;;;;;;;29.00;99.90;;;;;;4937679;29;20369;-84
2023/09/11 08:29:41;;;;;;;;;;;29.10;99.90;;;;;;4933855;28;20025;-83
2023/09/11 08:32:06;;;;;;;;;;;29.20;99.90;;;;;;4931875;29;19926;-84
2023/09/11 08:34:32;;;;;;;;;;;29.50;99.90;;;;;;4915279;29;20342;-83
2023/09/11 08:36:58;;;;;;;;;;;29.60;99.90;;;;;;4932307;28;20485;-83
2023/09/11 08:39:23;;;;;;;;;;;29.70;99.90;;;;;;4918499;28;19953;-83
2023/09/11 08:41:50;;;;;;;;;;;29.70;99.90;;;;;;4933136;29;19931;-87
2023/09/11 08:44:15;;;;;;;;;;;29.80;99.90;;;;;;4939305;29;20371;-82
2023/09/11 08:46:45;;;;;;;;;;;29.70;99.90;;;;;;4934915;28;19927;-83
2023/09/11 08:49:11;;;;;;;;;;;29.70;99.90;;;;;;4927682;28;19928;-83
2023/09/11 08:51:40;;;;;;;;;;;29.80;99.90;;;;;;4927531;29;20366;-83
2023/09/11 08:54:09;;;;;;;;;;;29.80;99.90;;;;;;4927322;29;19937;-83
2023/09/11 08:56:38;;;;;;;;;;;29.90;99.90;;;;;;4937599;29;19926;-82
2023/09/11 08:59:04;;;;;;;;;;;30.00;99.90;;;;;;4943021;28;19930;-82
2023/09/11 09:01:31;;;;;;;;;;;30.10;99.90;;;;;;4933633;29;19966;-85
2023/09/11 09:03:58;;;;;;;;;;;30.20;99.90;;;;;;4930403;29;20396;-85
2023/09/11 09:06:23;;;;;;;;;;;30.30;99.90;;;;;;4928161;28;19931;-84
2023/09/11 09:08:49;;;;;;;;;;;30.30;99.90;;;;;;4954101;28;19926;-83
2023/09/11 09:11:16;;;;;;;;;;;30.40;99.90;;;;;;4932109;29;19937;-83
2023/09/11 09:13:41;;;;;;;;;;;30.50;99.90;;;;;;4931109;28;19942;-84
2023/09/11 09:16:07;;;;;;;;;;;30.60;99.90;;;;;;4931605;29;19927;-83
2023/09/11 09:18:32;;;;;;;;;;;30.60;99.90;;;;;;4932829;28;19934;-85
2023/09/11 09:20:58;;;;;;;;;;;30.70;99.90;;;;;;4942820;28;19926;-83
2023/09/11 09:23:35;;;;;;;;;;;30.70;99.90;;;;;;4931984;29;20382;-84
2023/09/11 09:26:06;;;;;;;;;;;30.80;99.90;;;;;;4934372;29;20437;-85
2023/09/11 09:28:33;;;;;;;;;;;30.90;99.90;;;;;;4938359;29;19927;-83
2023/09/11 09:30:58;;;;;;;;;;;30.90;99.90;;;;;;4933148;29;19933;-85
2023/09/11 09:33:24;;;;;;;;;;;30.90;99.90;;;;;;4932243;29;20022;-83
2023/09/11 09:35:50;;;;;;;;;;;30.90;99.90;;;;;;4931388;28;19934;-87
2023/09/11 09:38:19;;;;;;;;;;;31.10;99.90;;;;;;4931317;29;19949;-85
2023/09/11 09:40:44;;;;;;;;;;;31.20;99.90;;;;;;4946334;28;19926;-84
2023/09/11 09:43:19;;;;;;;;;;;31.20;99.90;;;;;;4947587;28;19960;-84
2023/09/11 09:45:45;;;;;;;;;;;31.30;99.90;;;;;;4914768;29;19974;-82
2023/09/11 09:48:14;;;;;;;;;;;31.30;99.90;;;;;;4946132;28;19970;-85
2023/09/11 09:51:00;;;;;;;;;;;31.40;99.90;;;;;;4932190;28;19926;-83
2023/09/11 09:53:27;;;;;;;;;;;31.40;99.90;;;;;;4926368;29;19982;-85
2023/09/11 09:55:56;;;;;;;;;;;31.40;99.90;;;;;;4952657;28;19927;-84
2023/09/11 09:58:28;;;;;;;;;;;31.50;99.90;;;;;;4931557;29;19927;-83
2023/09/11 10:01:09;;;;;;;;;;;31.60;99.90;;;;;;4931727;29;19935;-83
2023/09/11 10:03:39;;;;;;;;;;;31.60;99.90;;;;;;4930305;29;19949;-84
2023/09/11 10:06:15;;;;;;;;;;;31.70;99.90;;;;;;4930667;29;19982;-83
2023/09/11 10:08:41;;;;;;;;;;;31.70;99.90;;;;;;4931874;29;20344;-82
2023/09/11 10:11:07;;;;;;;;;;;31.70;99.90;;;;;;4939709;28;19934;-83
2023/09/11 10:13:35;;;;;;;;;;;31.50;99.90;;;;;;4935832;28;20351;-84
2023/09/11 10:16:00;;;;;;;;;;;31.20;99.90;;;;;;4947881;28;19972;-83
2023/09/11 10:18:28;;;;;;;;;;;31.00;99.90;;;;;;4937741;28;19966;-85
2023/09/11 10:20:54;;;;;;;;;;;30.80;99.90;;;;;;4930963;29;19938;-85
2023/09/11 10:23:20;;;;;;;;;;;30.70;99.90;;;;;;4932468;29;19981;-83
2023/09/11 10:25:50;;;;;;;;;;;30.60;99.90;;;;;;4931392;29;20001;-88
2023/09/11 10:28:26;;;;;;;;;;;30.40;99.90;;;;;;4928160;28;19927;-82
2023/09/11 10:30:54;;;;;;;;;;;30.20;99.90;;;;;;4921163;29;19935;-83
2023/09/11 10:33:21;;;;;;;;;;;30.10;99.90;;;;;;4932203;29;19927;-82
2023/09/11 10:35:51;;;;;;;;;;;30.10;99.90;;;;;;4919922;29;19938;-84
2023/09/11 10:38:18;;;;;;;;;;;30.00;99.90;;;;;;4932819;28;19934;-83
2023/09/11 10:40:43;;;;;;;;;;;30.00;99.90;;;;;;4930710;29;20464;-83
2023/09/11 10:43:09;;;;;;;;;;;30.00;99.90;;;;;;4936787;29;19934;-83
2023/09/11 10:45:35;;;;;;;;;;;30.00;99.90;;;;;;4925176;28;19930;-83
2023/09/11 10:48:04;;;;;;;;;;;30.00;99.90;;;;;;4930255;29;20374;-82
2023/09/11 10:50:32;;;;;;;;;;;30.00;99.90;;;;;;4929998;29;19927;-84
2023/09/11 10:52:57;;;;;;;;;;;30.10;99.90;;;;;;4932219;29;20076;-85
2023/09/11 10:55:24;;;;;;;;;;;30.10;99.90;;;;;;4929829;29;20018;-82
2023/09/11 10:57:53;;;;;;;;;;;30.00;99.90;;;;;;4931391;29;19934;-82
2023/09/11 11:00:20;;;;;;;;;;;30.00;99.90;;;;;;4933481;29;19934;-82
2023/09/11 11:02:46;;;;;;;;;;;30.00;99.90;;;;;;4933748;29;19977;-83
2023/09/11 11:05:17;;;;;;;;;;;30.00;99.90;;;;;;4935293;28;19970;-82
2023/09/11 11:07:46;;;;;;;;;;;30.00;99.90;;;;;;4933956;29;20297;-81
2023/09/11 11:10:15;;;;;;;;;;;29.90;99.90;;;;;;4933922;29;19927;-84
2023/09/11 11:12:42;;;;;;;;;;;29.90;99.90;;;;;;4932732;28;19934;-84
2023/09/11 11:15:18;;;;;;;;;;;30.00;99.90;;;;;;4933059;29;19953;-83
2023/09/11 11:17:43;;;;;;;;;;;30.00;99.90;;;;;;4933115;29;19927;-83
2023/09/11 11:20:09;;;;;;;;;;;29.90;99.90;;;;;;4950993;29;20541;-83
2023/09/11 11:22:39;;;;;;;;;;;29.80;99.90;;;;;;4936244;28;19927;-82
2023/09/11 11:25:08;;;;;;;;;;;29.90;99.90;;;;;;4932254;29;19934;-83
2023/09/11 11:27:34;;;;;;;;;;;30.00;99.90;;;;;;4933460;29;19931;-85
2023/09/11 11:30:00;;;;;;;;;;;30.10;99.90;;;;;;4930440;28;19934;-83
2023/09/11 11:32:25;;;;;;;;;;;30.10;99.90;;;;;;4929502;29;19931;-83
2023/09/11 11:34:51;;;;;;;;;;;30.00;99.90;;;;;;4928540;29;19934;-81
2023/09/11 11:37:20;;;;;;;;;;;30.10;99.90;;;;;;4931154;29;20025;-81
2023/09/11 11:39:46;;;;;;;;;;;30.10;99.90;;;;;;4946079;28;19931;-87
2023/09/11 11:42:12;;;;;;;;;;;30.10;99.90;;;;;;4927297;29;19934;-82
2023/09/11 11:44:38;;;;;;;;;;;30.20;99.90;;;;;;4913813;29;19927;-83
2023/09/11 11:47:05;;;;;;;;;;;30.20;99.90;;;;;;4929790;29;19985;-81
2023/09/11 11:49:31;;;;;;;;;;;30.10;99.90;;;;;;4930123;28;19945;-84
2023/09/11 11:52:03;;;;;;;;;;;30.20;99.90;;;;;;4912362;29;20301;-80
2023/09/11 11:54:29;;;;;;;;;;;30.30;99.90;;;;;;4930110;28;19931;-81
2023/09/11 11:56:59;;;;;;;;;;;30.30;99.90;;;;;;4927610;29;19977;-82
2023/09/11 11:59:31;;;;;;;;;;;30.50;99.90;;;;;;4928366;29;19977;-81
2023/09/11 12:01:57;;;;;;;;;;;30.50;99.90;;;;;;4928394;28;19930;-85
2023/09/11 12:04:24;;;;;;;;;;;30.60;99.90;;;;;;4930632;28;20010;-82
2023/09/11 12:07:02;;;;;;;;;;;30.60;99.90;;;;;;4928076;29;19948;-86
2023/09/11 12:09:28;;;;;;;;;;;30.60;99.90;;;;;;4929833;29;19934;-82
2023/09/11 12:11:55;;;;;;;;;;;30.50;99.90;;;;;;4926169;29;19934;-82
2023/09/11 12:14:20;;;;;;;;;;;30.50;99.90;;;;;;4933391;28;20286;-81
2023/09/11 12:16:46;;;;;;;;;;;30.40;99.90;;;;;;4932904;28;19934;-81
2023/09/11 12:19:11;;;;;;;;;;;30.50;99.90;;;;;;4932627;29;19931;-82
2023/09/11 12:21:37;;;;;;;;;;;30.50;98.70;;;;;;4931425;28;19927;-82
2023/09/11 12:24:08;;;;;;;;;;;30.50;99.40;;;;;;4927809;29;20014;-86
2023/09/11 12:26:34;;;;;;;;;;;30.50;98.90;;;;;;4927775;29;19938;-80
2023/09/11 12:28:59;;;;;;;;;;;30.50;97.90;;;;;;4929639;28;19931;-82
2023/09/11 12:31:25;;;;;;;;;;;30.40;97.20;;;;;;4926352;28;19962;-84
2023/09/11 12:33:52;;;;;;;;;;;30.50;97.70;;;;;;4928201;29;19927;-82
2023/09/11 12:36:20;;;;;;;;;;;30.50;98.30;;;;;;4926434;28;19977;-81
2023/09/11 12:38:46;;;;;;;;;;;30.50;98.90;;;;;;4928872;28;19977;-82
2023/09/11 12:41:12;;;;;;;;;;;30.50;97.30;;;;;;4928186;29;19992;-84
2023/09/11 12:43:38;;;;;;;;;;;30.40;99.30;;;;;;4933189;28;19926;-81
2023/09/11 12:46:03;;;;;;;;;;;30.40;98.80;;;;;;4934234;29;19931;-82
2023/09/11 12:48:29;;;;;;;;;;;30.50;97.90;;;;;;4945147;28;19973;-82
2023/09/11 12:50:55;;;;;;;;;;;30.40;99.50;;;;;;4931833;29;20358;-89
2023/09/11 12:53:21;;;;;;;;;;;30.50;99.10;;;;;;4930797;28;20315;-81
2023/09/11 12:55:47;;;;;;;;;;;30.50;97.70;;;;;;4931822;28;19958;-83
2023/09/11 12:58:15;;;;;;;;;;;30.40;98.70;;;;;;4925028;28;19927;-80
2023/09/11 13:00:43;;;;;;;;;;;30.40;98.60;;;;;;4920678;29;19953;-83
2023/09/11 13:03:10;;;;;;;;;;;30.40;98.70;;;;;;4930520;28;19927;-81
2023/09/11 13:05:37;;;;;;;;;;;30.40;98.50;;;;;;4940327;28;20365;-82
2023/09/11 13:08:02;;;;;;;;;;;30.30;97.50;;;;;;4933307;29;19938;-82
2023/09/11 13:10:28;;;;;;;;;;;30.20;97.60;;;;;;4933266;29;19988;-82
2023/09/11 13:12:54;;;;;;;;;;;30.20;97.90;;;;;;4930694;29;20335;-81
2023/09/11 13:15:20;;;;;;;;;;;30.10;96.90;;;;;;4931963;28;19926;-81
2023/09/11 13:17:45;;;;;;;;;;;30.00;96.80;;;;;;4933313;29;19927;-82
2023/09/11 13:20:11;;;;;;;;;;;29.90;94.70;;;;;;4934121;28;20243;-82
2023/09/11 13:22:37;;;;;;;;;;;29.80;95.60;;;;;;4932441;29;20056;-81
2023/09/11 13:25:04;;;;;;;;;;;29.80;94.50;;;;;;4943712;28;19927;-83
2023/09/11 13:27:30;;;;;;;;;;;29.70;94.80;;;;;;4933177;29;19926;-84
2023/09/11 13:29:55;;;;;;;;;;;29.70;97.30;;;;;;4931067;29;19934;-83
2023/09/11 13:32:21;;;;;;;;;;;29.70;95.70;;;;;;4934546;28;20285;-83
2023/09/11 13:34:46;;;;;;;;;;;29.60;95.60;;;;;;4927907;29;19928;-82
2023/09/11 13:37:12;;;;;;;;;;;29.60;96.00;;;;;;4928644;29;20440;-82
2023/09/11 13:39:38;;;;;;;;;;;29.60;95.90;;;;;;4931904;29;19926;-85
2023/09/11 13:42:04;;;;;;;;;;;29.50;96.80;;;;;;4928162;29;19958;-81
2023/09/11 13:44:30;;;;;;;;;;;29.50;96.70;;;;;;4931410;28;20370;-85
2023/09/11 13:46:55;;;;;;;;;;;29.40;97.20;;;;;;4928041;29;19934;-81
2023/09/11 13:49:21;;;;;;;;;;;29.40;94.70;;;;;;4931489;29;19927;-83
2023/09/11 13:51:46;;;;;;;;;;;29.30;96.00;;;;;;4932712;29;19933;-82
2023/09/11 13:54:12;;;;;;;;;;;29.30;95.60;;;;;;4929439;29;19934;-84
2023/09/11 13:56:38;;;;;;;;;;;29.10;94.90;;;;;;4931576;29;20053;-83
2023/09/11 13:59:03;;;;;;;;;;;29.00;94.90;;;;;;4932038;29;19931;-82
2023/09/11 14:01:29;;;;;;;;;;;29.00;95.70;;;;;;4935455;29;19927;-84
2023/09/11 14:03:55;;;;;;;;;;;29.00;95.40;;;;;;4943489;28;19978;-82
2023/09/11 14:06:20;;;;;;;;;;;29.00;95.00;;;;;;4928546;29;20010;-81
2023/09/11 14:08:46;;;;;;;;;;;29.00;95.70;;;;;;4932021;29;19930;-82
2023/09/11 14:11:11;;;;;;;;;;;29.00;95.90;;;;;;4931501;29;19934;-82
2023/09/11 14:13:37;;;;;;;;;;;29.00;95.20;;;;;;4914930;29;19966;-82
2023/09/11 14:16:03;;;;;;;;;;;29.00;93.20;;;;;;4931489;29;19929;-82
2023/09/11 14:18:28;;;;;;;;;;;29.00;94.40;;;;;;4931841;28;19934;-85
2023/09/11 14:20:54;;;;;;;;;;;28.90;94.90;;;;;;4932563;28;19954;-84
2023/09/11 14:23:20;;;;;;;;;;;28.80;95.70;;;;;;4931261;29;19927;-83
2023/09/11 14:25:45;;;;;;;;;;;28.80;97.00;;;;;;4931864;29;19926;-84
2023/09/11 14:28:11;;;;;;;;;;;28.70;98.00;;;;;;4931353;29;19931;-82
2023/09/11 14:30:36;;;;;;;;;;;28.70;98.70;;;;;;4932057;28;19931;-82
2023/09/11 14:33:02;;;;;;;;;;;28.70;98.90;;;;;;4934252;29;19935;-84
2023/09/11 14:35:28;;;;;;;;;;;28.70;97.60;;;;;;4935802;29;20353;-83